Data for 12/13/2013

Time Sea-Level Adjusted Pressure Absolute Pressure Temperature Relative Humidity Dew Point   
(mb) (inHg) (mb) (inHg) (C) (F) (%) (C) (F)
00:05 1017 30.03 846 24.98 -4.5 23.8 83 -6.9 19.5
00:10 1017 30.03 846 24.98 -4.9 23.2 83 -7.3 18.8
00:15 1017 30.03 846 24.98 -5.3 22.4 83 -7.8 17.9
00:20 1017 30.03 846 24.98 -5 23 81 -7.7 18.1
00:25 1017 30.03 846 24.98 -4.8 23.4 79 -7.9 17.8
00:30 1017 30.03 846 24.98 -4.6 23.7 80 -7.6 18.4
00:35 1017 30.03 846 24.98 -4.4 24 80 -7.4 18.6
00:40 1017 30.03 846 24.98 -4.5 23.9 79 -7.6 18.3
00:45 1017 30.03 846 24.98 -4.5 23.9 79 -7.6 18.3
00:50 1017 30.03 846 24.98 -4.5 23.9 80 -7.4 18.6
00:55 1017 30.03 846 24.98 -4.7 23.5 81 -7.5 18.5
01:00 1017 30.03 846 24.98 -4.8 23.4 78 -8 17.6
01:05 1017 30.03 846 24.98 -4.9 23.2 80 -7.7 18.1
01:10 1017 30.03 846 24.98 -4.7 23.6 79 -7.7 18.1
01:15 1017 30.03 846 24.98 -4.5 24 80 -7.4 18.7
01:20 1017 30.03 846 24.98 -4 24.8 79 -7.2 19.1
01:25 1017 30.03 846 24.98 -4.1 24.6 79 -7.3 18.8
01:30 1017 30.03 846 24.98 -4.7 23.6 81 -7.5 18.5
01:35 1017 30.03 846 24.98 -5 23.1 81 -7.7 18.2
01:40 1017 30.03 846 24.98 -5.1 22.8 82 -7.8 18
01:45 1017 30.03 846 24.98 -4.9 23.1 79 -8 17.6
01:50 1017 30.03 846 24.98 -4.9 23.2 78 -8.2 17.2
01:55 1016 30 846 24.98 -4.8 23.4 76 -8.3 17
02:00 1016 30 846 24.98 -5.4 22.2 78 -8.7 16.4
02:05 1016 30 846 24.98 -5.4 22.3 78 -8.6 16.4
02:10 1016 30 846 24.98 -5.1 22.8 79 -8.2 17.3
02:15 1016 30 845 24.95 -4.9 23.3 79 -8 17.6
02:20 1016 30 845 24.95 -4.8 23.4 79 -7.9 17.8
02:25 1016 30 846 24.98 -4.4 24 78 -7.7 18.1
02:30 1016 30 846 24.98 -3.8 25.1 75 -7.7 18.2
02:35 1016 30 846 24.98 -3.6 25.6 74 -7.5 18.5
02:40 1016 30 846 24.98 -3.8 25.2 76 -7.3 18.8
02:45 1016 30 846 24.98 -3.9 25 77 -7.4 18.7
02:50 1016 30 846 24.98 -3.9 25.1 78 -7.1 19.2
02:55 1016 30 846 24.98 -3.7 25.3 78 -7 19.4
03:00 1016 30 846 24.98 -3.5 25.7 77 -7 19.4
03:05 1016 30 845 24.95 -3.5 25.7 77 -6.9 19.5
03:10 1016 30 846 24.98 -3.3 26.1 73 -7.4 18.6
03:15 1016 30 845 24.95 -3.2 26.3 76 -6.9 19.6
03:20 1016 30 846 24.98 -3.5 25.8 76 -7.1 19.2
03:25 1016 30 845 24.95 -3.7 25.4 77 -7.1 19.2
03:30 1016 30 846 24.98 -3.7 25.3 77 -7.2 19
03:35 1016 30 846 24.98 -3.5 25.7 76 -7.2 19.1
03:40 1016 30 846 24.98 -3 26.6 66 -8.5 16.6
03:45 1016 30 846 24.98 -2 28.4 63 -8.1 17.4
03:50 1016 30 846 24.98 -2.1 28.3 69 -7 19.4
03:55 1017 30.03 846 24.98 -2.5 27.5 68 -7.5 18.4
04:00 1017 30.03 846 24.98 -2.5 27.4 71 -7.1 19.2
04:05 1017 30.03 846 24.98 -2.6 27.4 67 -7.9 17.8
04:10 1017 30.03 846 24.98 -2.3 27.8 67 -7.6 18.3
04:15 1017 30.03 846 24.98 -2.4 27.8 64 -8.2 17.2
04:20 1017 30.03 846 24.98 -2.2 28.1 64 -8.1 17.4
04:25 1017 30.03 846 24.98 -2.2 28 65 -7.9 17.9
04:30 1017 30.03 846 24.98 -2.4 27.7 66 -8 17.6
04:35 1017 30.03 846 24.98 -2.5 27.5 64 -8.3 17
04:40 1017 30.03 846 24.98 -2.6 27.2 68 -7.8 17.9
04:45 1017 30.03 846 24.98 -3 26.6 75 -6.9 19.5
04:50 1017 30.03 846 24.98 -3.4 25.9 70 -8.1 17.4
04:55 1016 30 846 24.98 -3 26.6 70 -7.7 18.1
05:00 1016 30 846 24.98 -2.9 26.8 69 -7.9 17.8
05:05 1016 30 846 24.98 -2.8 27 69 -7.6 18.3
05:10 1016 30 846 24.98 -3 26.6 76 -6.7 19.9
05:15 1016 30 846 24.98 -3.6 25.6 76 -7.2 19
05:20 1016 30 846 24.98 -3.4 25.9 74 -7.4 18.8
05:25 1017 30.03 846 24.98 -3.4 25.8 79 -6.6 20
05:30 1017 30.03 846 24.98 -4.2 24.4 81 -7 19.5
05:35 1017 30.03 846 24.98 -4.3 24.2 79 -7.5 18.5
05:40 1017 30.03 846 24.98 -4.1 24.7 77 -7.6 18.3
05:45 1017 30.03 846 24.98 -4 24.9 77 -7.4 18.6
05:50 1017 30.03 846 24.98 -3.8 25.1 76 -7.5 18.5
05:55 1017 30.03 846 24.98 -3.6 25.5 72 -7.9 17.7
06:00 1017 30.03 846 24.98 -3.5 25.8 71 -8 17.6
06:05 1017 30.03 846 24.98 -3.5 25.7 73 -7.7 18.2
06:10 1017 30.03 846 24.98 -3.6 25.6 72 -7.9 17.7
06:15 1017 30.03 846 24.98 -3.6 25.6 69 -8.4 16.9
06:20 1017 30.03 846 24.98 -3.3 26.1 66 -8.7 16.3
06:25 1017 30.03 846 24.98 -3.2 26.3 69 -8 17.6
06:30 1017 30.03 846 24.98 -3 26.6 68 -8 17.6
06:35 1017 30.03 846 24.98 -3.1 26.4 69 -7.9 17.7
06:40 1017 30.03 846 24.98 -3.2 26.2 71 -7.8 18
06:45 1017 30.03 846 24.98 -3.1 26.4 69 -8 17.7
06:50 1017 30.03 846 24.98 -3 26.6 72 -7.4 18.7
06:55 1017 30.03 846 24.98 -3.2 26.3 70 -8 17.7
07:00 1017 30.03 846 24.98 -3 26.6 70 -7.8 18
07:05 1017 30.03 846 24.98 -2.8 26.9 69 -7.8 18
07:10 1017 30.03 846 24.98 -2.8 27 70 -7.6 18.4
07:15 1017 30.03 846 24.98 -2.7 27.1 68 -7.9 17.9
07:20 1017 30.03 846 24.98 -2.6 27.3 66 -8.1 17.4
07:25 1017 30.03 846 24.98 -2.5 27.4 65 -8.2 17.2
07:30 1017 30.03 846 24.98 -2.4 27.6 65 -8.1 17.4
07:35 1017 30.03 846 24.98 -2.3 27.9 64 -8.3 17.1
07:40 1017 30.03 846 24.98 -2.1 28.2 65 -7.8 17.9
07:45 1017 30.03 846 24.98 -2.3 27.8 66 -7.8 18
07:50 1017 30.03 846 24.98 -2.4 27.6 67 -7.7 18.1
07:55 1017 30.03 846 24.98 -2.5 27.6 66 -7.9 17.7
08:00 1017 30.03 846 24.98 -2.2 28.1 65 -7.8 17.9
08:05 1017 30.03 847 25.01 -2 28.4 66 -7.5 18.4
08:10 1017 30.03 847 25.01 -1.9 28.6 65 -7.6 18.4
08:15 1018 30.06 847 25.01 -1.7 28.9 65 -7.4 18.7
08:20 1018 30.06 847 25.01 -1.7 29 65 -7.3 18.8
08:25 1018 30.06 847 25.01 -1.8 28.8 63 -7.8 17.9
08:30 1017 30.03 847 25.01 -1.5 29.3 63 -7.7 18.2
08:35 1017 30.03 847 25.01 -1.3 29.6 63 -7.5 18.5
08:40 1017 30.03 846 24.98 -1.2 29.8 63 -7.5 18.6
08:45 1017 30.03 847 25.01 -1.3 29.7 63 -7.4 18.7
08:50 1017 30.03 847 25.01 -1.8 28.7 66 -7.3 18.9
08:55 1017 30.03 847 25.01 -2.1 28.2 68 -7.3 18.8
09:00 1017 30.03 847 25.01 -2.2 28 68 -7.4 18.7
09:05 1018 30.06 847 25.01 -2.2 28.1 71 -6.7 19.9
09:10 1018 30.06 847 25.01 -2.5 27.5 75 -6.3 20.6
09:15 1018 30.06 847 25.01 -2.9 26.8 70 -7.6 18.3
09:20 1018 30.06 847 25.01 -2.3 27.8 67 -7.7 18.2
09:25 1018 30.06 847 25.01 -2 28.4 66 -7.6 18.3
09:30 1018 30.06 847 25.01 -1.8 28.7 63 -7.9 17.8
09:35 1018 30.06 847 25.01 -1.6 29.2 63 -7.8 18
09:40 1018 30.06 848 25.04 -1.5 29.4 61 -7.9 17.7
09:45 1019 30.09 848 25.04 -1.4 29.4 63 -7.6 18.3
09:50 1019 30.09 848 25.04 -1.3 29.6 61 -7.9 17.7
09:55 1019 30.09 848 25.04 -1.1 29.9 61 -7.8 18
10:00 1019 30.09 848 25.04 -1.2 29.9 62 -7.6 18.2
10:05 1019 30.09 848 25.04 -1.2 29.9 62 -7.6 18.3
10:10 1019 30.09 848 25.04 -1.1 29.9 64 -7.1 19.2
10:15 1019 30.09 848 25.04 -1.1 30 67 -6.5 20.3
10:20 1019 30.09 848 25.04 -1.2 29.8 72 -5.7 21.7
10:25 1019 30.09 848 25.04 -1.5 29.4 75 -5.3 22.5
10:30 1019 30.09 848 25.04 -1.6 29.1 78 -5 23.1
10:35 1019 30.09 849 25.07 -2 28.5 81 -4.8 23.4
10:40 1019 30.09 849 25.07 -2.1 28.3 83 -4.5 23.9
10:45 1019 30.09 849 25.07 -2.1 28.2 84 -4.4 24
10:50 1020 30.12 849 25.07 -2.1 28.2 85 -4.3 24.3
10:55 1019 30.09 849 25.07 -2.3 27.9 87 -4.1 24.5
11:00 1020 30.12 849 25.07 -2.1 28.2 86 -4.1 24.6
11:05 1019 30.09 849 25.07 -2.2 28 86 -4.2 24.4
11:10 1020 30.12 849 25.07 -2.9 26.7 88 -4.6 23.6
11:15 1019 30.09 849 25.07 -3 26.6 88 -4.7 23.6
11:20 1019 30.09 849 25.07 -2.4 27.6 86 -4.5 23.9
11:25 1019 30.09 849 25.07 -1.8 28.7 83 -4.3 24.2
11:30 1020 30.12 849 25.07 -1.4 29.4 82 -4.2 24.5
11:35 1019 30.09 849 25.07 -1.2 29.8 80 -4.2 24.4
11:40 1019 30.09 849 25.07 -1.1 30.1 80 -4 24.8
11:45 1019 30.09 849 25.07 -1 30.3 79 -4.1 24.6
11:50 1019 30.09 849 25.07 -0.6 30.9 78 -4 24.7
11:55 1020 30.12 849 25.07 -0.3 31.5 76 -3.9 24.9
12:00 1020 30.12 849 25.07 -0 32 75 -3.9 25.1
12:05 1020 30.12 849 25.07 -0.1 31.8 76 -3.9 25
12:10 1020 30.12 849 25.07 -0.1 31.8 74 -4.2 24.4
12:15 1019 30.09 849 25.07 -0.1 31.7 72 -4.5 23.8
12:20 1019 30.09 849 25.07 0.2 32.4 71 -4.4 24.1
12:25 1019 30.09 849 25.07 0.6 33.1 71 -4 24.8
12:30 1019 30.09 849 25.07 0.7 33.3 73 -3.6 25.6
12:35 1019 30.09 849 25.07 0.3 32.5 76 -3.5 25.7
12:40 1019 30.09 849 25.07 -0 32 76 -3.8 25.2
12:45 1019 30.09 848 25.04 -0 31.9 73 -4.2 24.4
12:50 1019 30.09 848 25.04 0.3 32.5 69 -4.8 23.4
12:55 1019 30.09 849 25.07 0.7 33.2 63 -5.5 22.1
13:00 1019 30.09 849 25.07 1 33.8 62 -5.5 22.2
13:05 1019 30.09 849 25.07 1.1 34 63 -5.2 22.6
13:10 1019 30.09 849 25.07 1.1 34 62 -5.3 22.4
13:15 1019 30.09 848 25.04 1.2 34.1 62 -5.4 22.3
13:20 1019 30.09 849 25.07 1.3 34.3 62 -5.3 22.5
13:25 1019 30.09 848 25.04 1.4 34.4 60 -5.5 22
13:30 1019 30.09 848 25.04 1.3 34.4 62 -5.2 22.6
13:35 1019 30.09 848 25.04 1.4 34.5 59 -5.7 21.7
13:40 1019 30.09 848 25.04 1.4 34.5 58 -6 21.3
13:45 1019 30.09 848 25.04 1.4 34.5 59 -5.8 21.5
13:50 1019 30.09 848 25.04 1.4 34.6 59 -5.8 21.6
13:55 1019 30.09 848 25.04 1.6 34.8 58 -5.8 21.5
14:00 1019 30.09 848 25.04 1.5 34.7 58 -6 21.3
14:05 1019 30.09 848 25.04 1.6 34.9 55 -6.5 20.4
14:10 1019 30.09 848 25.04 1.8 35.2 53 -6.7 19.9
14:15 1019 30.09 848 25.04 1.9 35.5 52 -6.9 19.5
14:20 1019 30.09 848 25.04 2 35.6 54 -6.3 20.7
14:25 1019 30.09 849 25.07 1.9 35.4 54 -6.4 20.5
14:30 1019 30.09 849 25.07 2 35.7 51 -7 19.4
14:35 1019 30.09 849 25.07 2.2 35.9 51 -7 19.5
14:40 1019 30.09 849 25.07 2.2 36 51 -7 19.3
14:45 1019 30.09 849 25.07 2.2 36 51 -7 19.4
14:50 1020 30.12 849 25.07 2.2 36 51 -6.9 19.6
14:55 1020 30.12 849 25.07 2.2 36 51 -7 19.5
15:00 1020 30.12 849 25.07 2.2 35.9 52 -6.7 20
15:05 1020 30.12 849 25.07 2.2 35.9 51 -6.9 19.5
15:10 1020 30.12 849 25.07 2.2 36 50 -7.2 19
15:15 1020 30.12 849 25.07 2.2 36 50 -7 19.3
15:20 1020 30.12 849 25.07 2.2 36 51 -7 19.4
15:25 1020 30.12 849 25.07 2.2 36 50 -7 19.4
15:30 1020 30.12 849 25.07 2.2 35.9 52 -6.8 19.8
15:35 1020 30.12 849 25.07 2.1 35.8 52 -6.8 19.7
15:40 1020 30.12 849 25.07 2.1 35.7 53 -6.6 20.2
15:45 1020 30.12 849 25.07 2.1 35.7 52 -6.9 19.7
15:50 1020 30.12 849 25.07 2.2 35.9 52 -6.8 19.8
15:55 1020 30.12 849 25.07 2.2 36 54 -6.1 21
16:00 1020 30.12 849 25.07 2.2 36 52 -6.7 20
16:05 1020 30.12 849 25.07 2.2 35.9 55 -6 21.1
16:10 1020 30.12 849 25.07 2 35.6 55 -6.2 20.9
16:15 1020 30.12 849 25.07 2 35.6 54 -6.3 20.6
16:20 1020 30.12 849 25.07 2 35.6 54 -6.2 20.8
16:25 1020 30.12 849 25.07 1.9 35.4 56 -6 21.2
16:30 1020 30.12 850 25.1 1.7 35.1 56 -6 21.2
16:35 1020 30.12 850 25.1 1.8 35.2 55 -6.3 20.7
16:40 1020 30.12 850 25.1 1.8 35.3 55 -6.3 20.6
16:45 1020 30.12 850 25.1 1.9 35.3 55 -6.3 20.6
16:50 1021 30.15 850 25.1 1.9 35.4 54 -6.4 20.5
16:55 1021 30.15 850 25.1 1.9 35.4 54 -6.4 20.5
17:00 1021 30.15 850 25.1 1.9 35.4 54 -6.3 20.6
17:05 1021 30.15 850 25.1 1.9 35.4 54 -6.5 20.3
17:10 1021 30.15 850 25.1 1.9 35.5 55 -6.2 20.9
17:15 1021 30.15 850 25.1 1.8 35.3 56 -6 21.1
17:20 1021 30.15 850 25.1 1.7 35.1 57 -6 21.2
17:25 1021 30.15 850 25.1 1.7 35 58 -5.8 21.5
17:30 1021 30.15 850 25.1 1.6 34.9 58 -5.8 21.5
17:35 1021 30.15 850 25.1 1.6 34.9 58 -5.9 21.4
17:40 1021 30.15 850 25.1 1.7 35 55 -6.3 20.6
17:45 1021 30.15 850 25.1 1.8 35.2 56 -6.2 20.9
17:50 1021 30.15 850 25.1 1.8 35.3 56 -6.1 21.1
17:55 1021 30.15 850 25.1 1.8 35.2 55 -6.2 20.8
18:00 1021 30.15 850 25.1 1.9 35.5 54 -6.4 20.5
18:05 1021 30.15 851 25.13 2 35.6 54 -6.3 20.6
18:10 1021 30.15 851 25.13 2 35.6 54 -6.2 20.8
18:15 1021 30.15 851 25.13 2 35.6 55 -6.2 20.9
18:20 1021 30.15 851 25.13 1.9 35.5 54 -6.4 20.5
18:25 1021 30.15 851 25.13 2 35.5 54 -6.3 20.6
18:30 1021 30.15 851 25.13 2 35.7 54 -6.4 20.5
18:35 1021 30.15 851 25.13 2.1 35.8 52 -6.6 20
18:40 1022 30.18 851 25.13 2.2 35.9 53 -6.3 20.6
18:45 1022 30.18 851 25.13 2.1 35.8 52 -6.7 20
18:50 1022 30.18 851 25.13 2.2 36 52 -6.7 20
18:55 1022 30.18 851 25.13 2.3 36.1 52 -6.5 20.3
19:00 1022 30.18 851 25.13 2.2 36 53 -6.4 20.5
19:05 1022 30.18 851 25.13 2 35.7 54 -6.4 20.5
19:10 1022 30.18 851 25.13 1.9 35.4 56 -6.1 21.1
19:15 1022 30.18 851 25.13 1.7 35.1 56 -6.2 20.8
19:20 1022 30.18 851 25.13 1.7 35 57 -6 21.2
19:25 1022 30.18 851 25.13 1.6 34.9 57 -6 21.2
19:30 1022 30.18 851 25.13 1.6 34.8 57 -6.1 21
19:35 1022 30.18 851 25.13 1.6 35 56 -6.1 21
19:40 1022 30.18 851 25.13 1.6 34.9 57 -6 21.3
19:45 1022 30.18 851 25.13 1.5 34.7 57 -6.1 21
19:50 1022 30.18 851 25.13 1.5 34.7 57 -6.2 20.9
19:55 1022 30.18 851 25.13 1.5 34.7 58 -6 21.2
20:00 1022 30.18 851 25.13 1.4 34.6 58 -6 21.3
20:05 1022 30.18 851 25.13 1.3 34.4 59 -5.9 21.4
20:10 1022 30.18 851 25.13 1.3 34.4 58 -6.1 21
20:15 1022 30.18 851 25.13 1.3 34.4 59 -5.8 21.5
20:20 1022 30.18 851 25.13 1.1 33.9 60 -5.8 21.5
20:25 1022 30.18 851 25.13 1 33.8 61 -5.7 21.8
20:30 1022 30.18 851 25.13 1.1 34 61 -5.5 22
20:35 1022 30.18 852 25.16 1 33.8 62 -5.4 22.3
20:40 1022 30.18 852 25.16 0.9 33.6 63 -5.4 22.2
20:45 1022 30.18 852 25.16 0.9 33.7 60 -5.9 21.4
20:50 1022 30.18 852 25.16 1.2 34.1 59 -5.9 21.5
20:55 1022 30.18 852 25.16 1.2 34.2 60 -5.6 21.9
21:00 1023 30.21 852 25.16 1.2 34.1 60 -5.6 21.8
21:05 1023 30.21 852 25.16 1.1 34 60 -5.7 21.8
21:10 1023 30.21 852 25.16 1.1 33.9 61 -5.5 22
21:15 1023 30.21 852 25.16 1.1 33.9 60 -5.8 21.6
21:20 1023 30.21 852 25.16 1.1 34 60 -5.8 21.6
21:25 1023 30.21 852 25.16 1 33.8 62 -5.4 22.2
21:30 1023 30.21 852 25.16 0.9 33.7 60 -5.9 21.4
21:35 1023 30.21 852 25.16 0.9 33.7 62 -5.5 22.1
21:40 1023 30.21 852 25.16 0.9 33.6 62 -5.6 21.8
21:45 1023 30.21 852 25.16 0.8 33.5 61 -5.9 21.4
21:50 1023 30.21 852 25.16 0.8 33.4 62 -5.6 21.9
21:55 1023 30.21 852 25.16 0.7 33.3 62 -5.8 21.6
22:00 1023 30.21 852 25.16 0.8 33.5 60 -6 21.3
22:05 1023 30.21 852 25.16 1 33.7 62 -5.5 22
22:10 1023 30.21 853 25.19 0.8 33.5 63 -5.3 22.4
22:15 1023 30.21 853 25.19 0.6 33.1 64 -5.4 22.2
22:20 1023 30.21 853 25.19 0.5 32.9 64 -5.5 22.1
22:25 1024 30.24 853 25.19 0.6 33.1 63 -5.5 22
22:30 1024 30.24 853 25.19 0.6 33 64 -5.5 22.2
22:35 1024 30.24 853 25.19 0.6 33.1 61 -5.9 21.3
22:40 1024 30.24 853 25.19 0.8 33.4 61 -6 21.2
22:45 1024 30.24 853 25.19 0.8 33.4 61 -5.9 21.3
22:50 1024 30.24 853 25.19 0.8 33.4 61 -5.9 21.4
22:55 1024 30.24 853 25.19 0.9 33.6 61 -5.8 21.6
23:00 1024 30.24 853 25.19 1 33.8 61 -5.8 21.6
23:05 1024 30.24 853 25.19 1 33.7 60 -5.8 21.5
23:10 1024 30.24 853 25.19 1 33.7 60 -6 21.3
23:15 1024 30.24 853 25.19 1.1 33.9 60 -5.9 21.4
23:20 1024 30.24 853 25.19 1 33.9 60 -5.8 21.6
23:25 1024 30.24 853 25.19 1 33.7 61 -5.8 21.5
23:30 1024 30.24 853 25.19 0.9 33.6 61 -5.8 21.6
23:35 1024 30.24 853 25.19 0.8 33.5 62 -5.6 22
23:40 1024 30.24 853 25.19 0.8 33.4 62 -5.7 21.8
23:45 1024 30.24 853 25.19 0.9 33.6 62 -5.7 21.7
23:50 1024 30.24 853 25.19 1 33.8 61 -5.7 21.7
23:55 1024 30.24 853 25.19 1 33.9 61 -5.7 21.8
24:00 1024 30.24 853 25.19 1 33.7 62 -5.5 22.1